LIBPLIPH

Guest
Details From LIBP - PESCARA
To LIPH - TREVISO
Flight Number -
Tags generated
Created
Modified
Stats Distance 212 nm / 392 km
Max Altitude 22,600 ft / 6,888 m
Waypoints 4
Social Downloads 1
Likes 0
Share VATSIM

Download

Looking for another format? Having issues loading an existing format? Contact us
Advertisement - Login to hide

Notes

Basic altitude profile: - Ascent Rate: 2500ft/min - Ascent Speed: 250kts - Cruise Altitude: 35000ft - Cruise Speed: 420kts - Descent Rate: 1500ft/min - Descent Speed: 250kts

Route

LIBP LANLI UL612 AMLON LIPH

ID Type Via Altitude Latitude Longitude Leg Dist Tot Dist Heading (true) Name
O LIBP APT - 0 ft / 0 m 42.43126˚ 14.18303˚ - 0 nm - PESCARA
LANLI FIX - 22,600 ft / 6,888 m 43.95722˚ 13.18056˚ 101 nm 101 nm 335° / 334° -
AMLON FIX UL612 (AWY-HI) 18,500 ft / 5,639 m 44.33917˚ 12.87639˚ 26 nm 128 nm 330° / 330° -
O LIPH APT - 0 ft / 0 m 45.64850˚ 12.19414˚ 83 nm 211 nm 340° / 340° TREVISO

Altitude Profile

Advertisement - Login to hide

Weather


0- 5 10 15 20 25 30 35+ Temperature / ° C

Clouds and Precipitation
Forecast for 2017-12-16 00:00 UTC. Updated 30 minutes ago

Ground ~20,000 ft ~40,000 ft Winds

LIBP

Details ICAO LIBP (PSR)
Name PESCARA
Region Italy
Timezone Europe/Rome (UTC+1.0)
Stats Elevation 48 ft / 15 m (AMSL)
Location 42.431257° 14.183030°
Runways 1
Magnetic Variation 3.382° E

METAR

LIBP 152114Z 28003KT 240V350 9999 FEW030 SCT080 11/10 Q0998 RMK RERA

Decode

TAF

TAF LIBP 151700Z 1518/1618 22012KT 9999 SCT030 BECMG 1520/1522 VRB05KT TEMPO 1518/1524 4000 SHRA TEMPO 1614/1618 SHRA

Decode

Departure Runways

ID Width Length Bearing (true) Bearing (mag) Surface Threshold Offset Overrun Length
04 148 ft / 45 m 7,943 ft / 2,421 m 37.19° 33.81° Asphalt 344 ft / 105 m 0 ft / 0 m
22 148 ft / 45 m 7,943 ft / 2,421 m 217.21° 213.83° Asphalt 617 ft / 188 m 0 ft / 0 m

LIPH

Details ICAO LIPH (TSF)
Name TREVISO
Region Italy
Timezone Europe/Rome (UTC+1.0)
Stats Elevation 59 ft / 18 m (AMSL)
Location 45.648499° 12.194136°
Runways 1
Magnetic Variation 3.153° E

METAR

LIPH 152120Z 26004KT 6000 NSC 06/05 Q0997

Decode

TAF

TAF LIPH 151700Z 1518/1618 VRB05KT 9999 SCT060 TEMPO 1521/1524 2000 BR BECMG 1523/1601 01010KT TEMPO 1600/1604 SHRA BECMG 1606/1608 VRB05KT

Decode

Destination Runways

ID Width Length Bearing (true) Bearing (mag) Surface Threshold Offset Overrun Length
07 144 ft / 44 m 7,919 ft / 2,414 m 69.18° 66.03° Asphalt 254 ft / 77 m 975 ft / 297 m
25 144 ft / 44 m 7,919 ft / 2,414 m 249.20° 246.05° Asphalt 389 ft / 119 m 0 ft / 0 m

Approach Navaids

Runway Type Ident Frequency Range Bearing (true) Bearing (mag) Slope Elevation
07 Localiser TRE 109.30 MHz 18 nm / 33 km 69.20° 66.05° - 51 ft / 16 m (AMSL)
07 Glidescope TRE 109.30 MHz 10 nm / 19 km 69.19° 66.04° 3.00° 56 ft / 17 m (AMSL)

Popular Alternatives